Time;durP1;ratioP1;P1;durP2;ratioP2;P2;SDS_P1;SDS_P2;PMS_P1;PMS_P2;Temp;Humidity;BMP_temperature;BMP_pressure;BME280_temperature;BME280_humidity;BME280_pressure;Samples;Min_cycle;Max_cycle;Signal;HPM_P1;HPM_P2
2023/12/19 00:01:39;;;;;;;23.00;16.40;;;;;;;6.94;93.75;100965.65;112413;248;39030;-71
2023/12/19 00:04:13;;;;;;;21.20;14.70;;;;;;;6.92;93.62;100959.97;112430;248;38436;-72
2023/12/19 00:06:47;;;;;;;21.50;15.60;;;;;;;6.92;93.89;100955.98;112434;248;38704;-73
2023/12/19 00:09:21;;;;;;;20.70;14.60;;;;;;;6.93;93.92;100949.70;112446;247;39410;-73
2023/12/19 00:11:55;;;;;;;19.20;14.30;;;;;;;6.95;93.89;100944.14;112286;245;154668;-70
2023/12/19 00:14:29;;;;;;;22.00;15.30;;;;;;;6.96;93.88;100939.98;112451;248;38408;-70
2023/12/19 00:17:03;;;;;;;22.00;15.90;;;;;;;6.97;93.96;100933.02;112341;245;154183;-71
2023/12/19 00:19:37;;;;;;;22.30;15.40;;;;;;;6.96;93.81;100923.31;112433;248;38456;-71
2023/12/19 00:22:10;;;;;;;21.40;15.20;;;;;;;6.90;93.48;100915.94;112452;248;39235;-72
2023/12/19 00:24:44;;;;;;;24.60;15.50;;;;;;;6.84;93.37;100908.05;112274;245;154843;-72
2023/12/19 00:27:18;;;;;;;23.40;15.60;;;;;;;6.83;93.64;100900.08;112443;248;38413;-72
2023/12/19 00:29:52;;;;;;;20.70;15.30;;;;;;;6.86;93.79;100902.13;112311;245;154495;-72
2023/12/19 00:32:26;;;;;;;21.30;15.00;;;;;;;6.87;93.81;100908.88;112421;248;38429;-71
2023/12/19 00:35:00;;;;;;;21.40;15.40;;;;;;;6.85;93.62;100897.27;112301;245;154146;-71
2023/12/19 00:37:34;;;;;;;23.30;15.20;;;;;;;6.79;93.40;100902.57;112431;248;38325;-70
2023/12/19 00:40:11;;;;;;;22.80;14.40;;;;;;;6.72;93.27;100900.07;112448;247;38351;-70
2023/12/19 00:42:45;;;;;;;20.70;14.20;;;;;;;6.69;93.48;100883.11;112308;245;155279;-71
2023/12/19 00:45:19;;;;;;;19.00;13.80;;;;;;;6.68;93.62;100880.69;112450;247;38330;-71
2023/12/19 00:47:53;;;;;;;19.90;14.10;;;;;;;6.69;93.68;100867.86;112299;245;154114;-71
2023/12/19 00:50:27;;;;;;;21.10;14.10;;;;;;;6.65;93.55;100851.95;112431;248;38758;-71
2023/12/19 00:53:01;;;;;;;22.60;14.50;;;;;;;6.58;93.31;100889.84;112435;248;38885;-73
2023/12/19 00:55:35;;;;;;;19.00;12.70;;;;;;;6.56;93.57;100908.60;112419;248;38527;-72
2023/12/19 00:58:09;;;;;;;19.50;13.50;;;;;;;6.57;93.80;100895.58;112449;248;38552;-71
2023/12/19 01:00:43;;;;;;;19.10;13.50;;;;;;;6.59;93.79;100888.11;112299;245;155127;-72
2023/12/19 01:03:17;;;;;;;20.50;14.40;;;;;;;6.59;93.92;100884.45;112447;248;38525;-74
2023/12/19 01:05:51;;;;;;;21.00;14.20;;;;;;;6.58;93.68;100891.76;112285;245;154250;-72
2023/12/19 01:08:25;;;;;;;20.80;13.20;;;;;;;6.57;93.82;100892.11;112429;248;38368;-72
2023/12/19 01:10:59;;;;;;;18.20;12.40;;;;;;;6.57;93.76;100878.61;112291;245;156102;-72
2023/12/19 01:13:32;;;;;;;18.70;12.40;;;;;;;6.58;93.76;100874.08;112423;247;38889;-72
2023/12/19 01:16:08;;;;;;;18.80;12.40;;;;;;;6.60;93.76;100865.57;112274;248;246461;-72
2023/12/19 01:18:41;;;;;;;17.60;12.60;;;;;;;6.58;93.56;100867.48;112283;245;155311;-72
2023/12/19 01:21:15;;;;;;;17.50;12.20;;;;;;;6.57;93.45;100867.68;112482;247;38902;-73
2023/12/19 01:23:49;;;;;;;22.70;12.50;;;;;;;6.55;93.45;100867.20;112322;247;154713;-73
2023/12/19 01:26:23;;;;;;;18.10;11.90;;;;;;;6.53;93.29;100863.41;112448;247;38442;-71
2023/12/19 01:28:57;;;;;;;16.70;11.30;;;;;;;6.52;93.15;100860.29;112304;247;155664;-71
2023/12/19 01:31:30;;;;;;;17.70;11.80;;;;;;;6.49;93.02;100857.39;112454;247;38539;-73
2023/12/19 01:34:04;;;;;;;20.10;12.40;;;;;;;6.46;92.99;100863.85;112444;247;38461;-73
2023/12/19 01:36:41;;;;;;;17.00;11.40;;;;;;;6.41;92.89;100859.75;112297;245;154392;-71
2023/12/19 01:39:15;;;;;;;16.60;11.30;;;;;;;6.37;92.80;100857.73;112508;247;38582;-71
2023/12/19 01:41:49;;;;;;;15.00;10.80;;;;;;;6.36;92.90;100857.22;112314;245;154574;-71
2023/12/19 01:44:22;;;;;;;15.40;11.00;;;;;;;6.35;92.87;100858.80;112411;247;38450;-71
2023/12/19 01:46:56;;;;;;;16.00;11.20;;;;;;;6.35;92.98;100853.58;112330;245;154291;-72
2023/12/19 01:49:30;;;;;;;14.80;9.80;;;;;;;6.33;92.92;100851.17;112389;247;38473;-71
2023/12/19 01:52:04;;;;;;;17.40;11.10;;;;;;;6.33;92.88;100838.36;112438;247;38227;-73
2023/12/19 01:54:39;;;;;;;14.00;10.20;;;;;;;6.32;92.68;100830.23;112341;245;156263;-74
2023/12/19 01:57:13;;;;;;;15.10;10.30;;;;;;;6.31;92.68;100833.70;112464;247;40181;-73
2023/12/19 01:59:47;;;;;;;13.70;10.00;;;;;;;6.31;92.69;100830.93;112301;245;154060;-73
2023/12/19 02:02:21;;;;;;;15.70;9.80;;;;;;;6.32;92.68;100825.90;112437;247;38422;-71
2023/12/19 02:04:55;;;;;;;14.60;9.00;;;;;;;6.31;92.42;100825.73;112312;245;155662;-71
2023/12/19 02:07:29;;;;;;;13.60;9.10;;;;;;;6.30;92.18;100810.67;112433;247;38457;-71
2023/12/19 02:10:03;;;;;;;11.90;8.90;;;;;;;6.30;91.98;100809.81;112317;247;174978;-71
2023/12/19 02:12:38;;;;;;;11.70;8.40;;;;;;;6.30;92.08;100810.33;112262;246;153410;-72
2023/12/19 02:15:13;;;;;;;13.70;8.90;;;;;;;6.30;91.89;100810.69;112445;247;38863;-72
2023/12/19 02:17:47;;;;;;;10.30;8.00;;;;;;;6.29;91.95;100799.61;112254;247;154060;-71
2023/12/19 02:20:21;;;;;;;13.00;8.90;;;;;;;6.27;91.64;100786.80;112371;248;38335;-71
2023/12/19 02:22:55;;;;;;;12.70;9.00;;;;;;;6.26;91.17;100775.91;112297;248;154661;-74
2023/12/19 02:25:29;;;;;;;9.70;7.50;;;;;;;6.23;91.03;100777.17;112307;247;174953;-74
2023/12/19 02:28:03;;;;;;;11.20;8.00;;;;;;;6.18;90.55;100773.95;112429;247;38286;-73
2023/12/19 02:30:37;;;;;;;10.50;7.40;;;;;;;6.10;90.41;100772.30;112247;247;153842;-71
2023/12/19 02:33:11;;;;;;;10.70;7.50;;;;;;;5.99;90.20;100781.63;112450;247;38606;-73
2023/12/19 02:35:45;;;;;;;10.50;7.80;;;;;;;5.93;90.33;100778.41;112301;245;154473;-71
2023/12/19 02:38:19;;;;;;;9.20;6.80;;;;;;;5.88;90.33;100773.42;112378;247;39581;-71
2023/12/19 02:40:53;;;;;;;9.50;6.90;;;;;;;5.85;90.35;100771.90;112338;245;153934;-73
2023/12/19 02:43:26;;;;;;;9.40;6.90;;;;;;;5.81;90.09;100760.87;112402;247;38331;-73
2023/12/19 02:46:00;;;;;;;11.20;7.60;;;;;;;5.76;90.18;100758.34;112469;247;38207;-71
2023/12/19 02:48:34;;;;;;;11.60;6.90;;;;;;;5.71;90.08;100766.37;112323;245;154164;-71
2023/12/19 02:51:08;;;;;;;10.60;6.80;;;;;;;5.69;90.37;100761.88;112449;247;40330;-73
2023/12/19 02:53:42;;;;;;;9.10;7.00;;;;;;;5.69;90.38;100754.44;112301;245;154471;-74
2023/12/19 02:56:16;;;;;;;9.80;6.30;;;;;;;5.70;90.47;100738.48;112439;247;39703;-73
2023/12/19 02:58:50;;;;;;;9.10;6.60;;;;;;;5.74;90.42;100736.39;112316;245;154958;-73
2023/12/19 03:01:24;;;;;;;8.40;6.40;;;;;;;5.75;90.34;100730.98;112429;247;40328;-72
2023/12/19 03:03:57;;;;;;;9.30;6.90;;;;;;;5.76;90.15;100728.91;112430;247;38612;-71
2023/12/19 03:06:31;;;;;;;9.60;6.60;;;;;;;5.75;89.93;100729.45;112312;244;154033;-72
2023/12/19 03:09:05;;;;;;;9.70;6.10;;;;;;;5.71;89.64;100729.16;112393;247;38369;-72
2023/12/19 03:11:40;;;;;;;8.60;6.00;;;;;;;5.67;89.49;100721.23;112295;245;154721;-73
2023/12/19 03:14:14;;;;;;;8.40;6.60;;;;;;;5.64;89.23;100723.18;112430;247;38208;-74
2023/12/19 03:16:48;;;;;;;8.70;6.60;;;;;;;5.60;89.19;100718.55;112321;245;153907;-71
2023/12/19 03:19:22;;;;;;;7.40;5.40;;;;;;;5.54;89.03;100715.50;112319;247;189161;-71
2023/12/19 03:21:56;;;;;;;10.90;6.60;;;;;;;5.47;88.79;100704.86;112437;247;40183;-71
2023/12/19 03:24:30;;;;;;;9.10;5.80;;;;;;;5.41;88.81;100695.06;112427;247;39736;-71
2023/12/19 03:27:04;;;;;;;7.80;6.00;;;;;;;5.38;88.79;100688.88;112479;247;38266;-71
2023/12/19 03:29:38;;;;;;;8.30;5.90;;;;;;;5.35;88.77;100684.59;112283;245;154722;-71
2023/12/19 03:32:12;;;;;;;10.90;6.40;;;;;;;5.35;88.87;100687.17;112427;247;38510;-71
2023/12/19 03:34:46;;;;;;;8.20;6.50;;;;;;;5.35;88.57;100693.59;112318;245;153844;-71
2023/12/19 03:37:20;;;;;;;9.60;6.20;;;;;;;5.35;88.71;100687.86;112406;247;38368;-72
2023/12/19 03:39:53;;;;;;;7.70;5.60;;;;;;;5.34;88.56;100687.70;112452;247;38361;-72
2023/12/19 03:42:27;;;;;;;8.70;6.10;;;;;;;5.35;88.61;100674.55;112196;245;172403;-73
2023/12/19 03:45:01;;;;;;;9.60;5.90;;;;;;;5.36;88.50;100671.08;112472;247;38414;-73
2023/12/19 03:47:35;;;;;;;8.30;5.80;;;;;;;5.40;88.31;100683.65;112325;245;154152;-71
2023/12/19 03:50:10;;;;;;;9.00;5.90;;;;;;;5.44;88.19;100678.60;112288;247;175020;-71
2023/12/19 03:52:44;;;;;;;10.10;6.60;;;;;;;5.45;88.04;100695.36;112326;245;154499;-72
2023/12/19 03:55:18;;;;;;;8.30;6.10;;;;;;;5.46;88.05;100701.23;112413;247;38271;-72
2023/12/19 03:57:52;;;;;;;7.90;6.00;;;;;;;5.49;88.06;100702.95;112418;247;38349;-73
2023/12/19 04:00:26;;;;;;;9.90;5.70;;;;;;;5.52;87.86;100694.60;112322;246;153410;-74
2023/12/19 04:03:00;;;;;;;9.80;6.80;;;;;;;5.53;87.58;100689.73;112391;247;38916;-71
2023/12/19 04:05:35;;;;;;;9.90;6.50;;;;;;;5.54;87.37;100688.52;112335;244;153612;-73
2023/12/19 04:08:09;;;;;;;8.80;6.50;;;;;;;5.52;87.07;100684.89;112524;246;39666;-72
2023/12/19 04:10:44;;;;;;;10.20;6.50;;;;;;;5.51;86.75;100691.66;112408;246;175008;-72
2023/12/19 04:13:17;;;;;;;8.30;6.20;;;;;;;5.49;86.71;100691.68;112486;246;38302;-72
2023/12/19 04:15:51;;;;;;;10.90;6.90;;;;;;;5.49;86.71;100693.95;112578;246;38813;-72
2023/12/19 04:18:25;;;;;;;9.70;6.90;;;;;;;5.51;86.72;100692.17;112352;244;153978;-72
2023/12/19 04:20:59;;;;;;;9.40;6.60;;;;;;;5.52;86.52;100683.00;112546;246;38614;-71
2023/12/19 04:23:33;;;;;;;10.70;6.40;;;;;;;5.53;86.04;100673.47;112394;244;153906;-71
2023/12/19 04:26:07;;;;;;;10.80;6.50;;;;;;;5.53;85.93;100676.58;112512;246;38778;-72
2023/12/19 04:28:42;;;;;;;9.60;6.30;;;;;;;5.54;85.58;100689.02;112595;246;38994;-72
2023/12/19 04:31:16;;;;;;;9.80;6.90;;;;;;;5.54;85.62;100696.65;112414;248;38708;-71
2023/12/19 04:33:49;;;;;;;8.10;6.40;;;;;;;5.55;85.88;100699.23;112430;248;39891;-71
2023/12/19 04:36:24;;;;;;;10.60;6.70;;;;;;;5.56;85.70;100702.49;112301;245;153506;-73
2023/12/19 04:38:58;;;;;;;10.20;6.70;;;;;;;5.57;85.04;100692.98;112437;248;38895;-73
2023/12/19 04:41:33;;;;;;;8.80;6.40;;;;;;;5.59;84.91;100684.11;112319;245;154056;-72
2023/12/19 04:44:07;;;;;;;8.30;6.00;;;;;;;5.63;84.97;100677.85;112377;247;38538;-72
2023/12/19 04:46:44;;;;;;;11.30;6.70;;;;;;;5.65;84.51;100675.73;112453;247;38999;-73
2023/12/19 04:49:17;;;;;;;9.20;6.80;;;;;;;5.68;84.55;100684.34;112411;247;40177;-74
2023/12/19 04:51:51;;;;;;;11.10;6.90;;;;;;;5.70;84.26;100685.36;112433;247;38713;-72
2023/12/19 04:54:25;;;;;;;11.70;6.50;;;;;;;5.73;83.62;100680.31;112294;245;155255;-72
2023/12/19 04:56:59;;;;;;;8.40;6.50;;;;;;;5.75;83.29;100674.39;112429;247;39110;-71
2023/12/19 04:59:33;;;;;;;9.70;6.80;;;;;;;5.79;83.23;100669.49;112332;245;154914;-71
2023/12/19 05:02:07;;;;;;;10.10;7.10;;;;;;;5.82;82.51;100663.56;112438;247;38668;-72
2023/12/19 05:04:41;;;;;;;9.80;7.20;;;;;;;5.83;82.60;100661.83;112420;247;40138;-72
2023/12/19 05:07:15;;;;;;;9.60;7.10;;;;;;;5.83;82.62;100658.53;112298;247;41894;-71
2023/12/19 05:09:50;;;;;;;9.90;6.50;;;;;;;5.84;82.38;100658.87;112401;247;38784;-71
2023/12/19 05:12:24;;;;;;;8.60;6.50;;;;;;;5.85;82.26;100658.67;112299;245;154297;-71
2023/12/19 05:14:57;;;;;;;9.10;6.90;;;;;;;5.87;82.17;100661.60;112444;247;38329;-71
2023/12/19 05:17:31;;;;;;;10.60;6.90;;;;;;;5.90;82.12;100663.96;112357;245;153735;-74
2023/12/19 05:20:07;;;;;;;8.00;6.60;;;;;;;5.93;81.96;100672.62;112427;247;38560;-73
2023/12/19 05:22:40;;;;;;;8.70;6.50;;;;;;;5.95;81.44;100667.05;112451;247;39351;-71
2023/12/19 05:25:15;;;;;;;7.90;6.20;;;;;;;5.95;81.37;100672.07;112190;247;40321;-71
2023/12/19 05:27:49;;;;;;;9.40;6.20;;;;;;;5.97;81.02;100669.45;112462;247;38345;-73
2023/12/19 05:30:23;;;;;;;9.30;6.00;;;;;;;5.99;80.61;100682.40;112249;247;155633;-74
2023/12/19 05:32:58;;;;;;;10.00;6.50;;;;;;;6.01;80.58;100688.45;112460;247;38555;-72
2023/12/19 05:35:32;;;;;;;11.20;7.30;;;;;;;6.02;80.55;100698.48;112322;245;154006;-71
2023/12/19 05:38:06;;;;;;;9.90;6.80;;;;;;;6.03;80.01;100685.65;112441;247;38712;-73
2023/12/19 05:40:42;;;;;;;8.80;6.10;;;;;;;6.01;79.36;100678.56;112421;247;38371;-73
2023/12/19 05:43:17;;;;;;;9.70;6.90;;;;;;;6.00;79.23;100670.61;112392;247;39375;-73
2023/12/19 05:45:51;;;;;;;9.50;6.20;;;;;;;6.01;79.31;100661.77;112446;247;39731;-73
2023/12/19 05:48:25;;;;;;;10.80;7.60;;;;;;;6.03;79.32;100663.30;112287;247;154202;-74
2023/12/19 05:50:59;;;;;;;11.00;7.00;;;;;;;6.03;78.73;100655.86;112586;248;38870;-73
2023/12/19 05:53:33;;;;;;;9.00;6.40;;;;;;;6.04;79.05;100650.98;112469;245;175165;-74
2023/12/19 05:56:11;;;;;;;12.40;6.80;;;;;;;6.04;78.63;100638.17;112435;247;38384;-71
2023/12/19 05:58:46;;;;;;;9.00;6.80;;;;;;;6.03;77.89;100640.44;112416;247;38964;-71
2023/12/19 06:01:21;;;;;;;9.80;6.40;;;;;;;6.01;78.40;100640.29;112442;247;38290;-74
2023/12/19 06:03:56;;;;;;;9.60;6.20;;;;;;;6.00;78.01;100631.82;112460;247;38567;-74
2023/12/19 06:06:32;;;;;;;9.40;6.40;;;;;;;6.01;77.61;100626.09;112325;245;153645;-73
2023/12/19 06:09:06;;;;;;;9.50;6.80;;;;;;;6.01;77.61;100622.28;112328;247;175061;-73
2023/12/19 06:11:40;;;;;;;8.60;6.60;;;;;;;6.01;77.74;100625.93;112213;245;174973;-73
2023/12/19 06:14:14;;;;;;;7.90;6.30;;;;;;;6.02;77.73;100629.20;112441;247;38976;-73
2023/12/19 06:16:48;;;;;;;7.90;6.30;;;;;;;6.03;77.47;100637.50;112442;247;38323;-71
2023/12/19 06:19:22;;;;;;;9.30;6.20;;;;;;;6.02;77.47;100632.84;112379;248;38425;-72
2023/12/19 06:21:56;;;;;;;11.90;6.20;;;;;;;6.02;77.23;100629.20;112376;248;40001;-72
2023/12/19 06:24:30;;;;;;;9.20;6.50;;;;;;;6.03;77.45;100627.63;112333;245;154990;-72
2023/12/19 06:27:04;;;;;;;8.30;6.70;;;;;;;6.05;77.38;100631.75;112440;247;38833;-73
2023/12/19 06:29:38;;;;;;;9.20;6.30;;;;;;;6.06;76.77;100640.74;112202;245;173948;-73
2023/12/19 06:32:12;;;;;;;8.60;6.40;;;;;;;6.08;77.40;100649.72;112424;247;38530;-73
2023/12/19 06:34:46;;;;;;;9.40;6.50;;;;;;;6.07;77.24;100653.02;112381;247;38304;-73
2023/12/19 06:37:20;;;;;;;10.80;7.20;;;;;;;6.09;77.32;100652.64;112423;248;38722;-73
2023/12/19 06:39:54;;;;;;;9.50;6.70;;;;;;;6.11;77.25;100648.47;112460;248;38554;-72
2023/12/19 06:42:28;;;;;;;11.20;7.30;;;;;;;6.14;77.48;100647.90;112306;248;153552;-72
2023/12/19 06:45:03;;;;;;;10.90;6.70;;;;;;;6.16;77.62;100644.73;112439;247;39739;-72
2023/12/19 06:47:36;;;;;;;10.20;7.30;;;;;;;6.17;77.44;100639.71;112269;247;154190;-72
2023/12/19 06:50:11;;;;;;;10.00;6.70;;;;;;;6.17;77.54;100653.05;112442;247;38618;-72
2023/12/19 06:52:45;;;;;;;9.00;6.50;;;;;;;6.18;77.79;100646.10;112450;247;38851;-72
2023/12/19 06:55:19;;;;;;;11.20;6.50;;;;;;;6.19;77.92;100642.42;112393;247;38508;-72
2023/12/19 06:57:55;;;;;;;9.40;6.70;;;;;;;6.23;77.97;100643.60;112454;247;39483;-72
2023/12/19 07:00:29;;;;;;;12.20;7.60;;;;;;;6.26;77.95;100637.49;112284;246;153691;-72
2023/12/19 07:03:03;;;;;;;8.80;7.20;;;;;;;6.28;78.21;100629.65;112450;247;38685;-72
2023/12/19 07:05:38;;;;;;;11.10;7.60;;;;;;;6.30;78.37;100624.94;112356;245;153541;-72
2023/12/19 07:08:12;;;;;;;12.40;6.50;;;;;;;6.31;78.59;100627.02;112524;246;38644;-73
2023/12/19 07:10:46;;;;;;;10.60;6.90;;;;;;;6.32;78.50;100634.45;112549;246;38699;-73
2023/12/19 07:13:20;;;;;;;8.90;6.40;;;;;;;6.34;78.82;100637.68;112437;247;38644;-73
2023/12/19 07:15:54;;;;;;;10.40;6.80;;;;;;;6.37;79.04;100637.13;112445;247;38389;-73
2023/12/19 07:18:28;;;;;;;11.10;7.20;;;;;;;6.39;79.10;100642.46;112285;247;153710;-74
2023/12/19 07:21:01;;;;;;;11.60;6.80;;;;;;;6.42;79.24;100634.10;112458;247;39664;-72
2023/12/19 07:23:36;;;;;;;10.00;7.10;;;;;;;6.45;79.27;100633.54;112290;245;153863;-73
2023/12/19 07:26:10;;;;;;;9.40;6.90;;;;;;;6.44;79.17;100640.65;112450;247;39014;-73
2023/12/19 07:28:45;;;;;;;9.80;7.00;;;;;;;6.45;79.30;100651.38;112477;247;38265;-73
2023/12/19 07:31:25;;;;;;;9.10;6.50;;;;;;;6.48;79.15;100658.43;112385;247;39580;-74
2023/12/19 07:34:00;;;;;;;8.90;6.60;;;;;;;6.51;79.14;100656.48;112471;247;39502;-73
2023/12/19 07:36:35;;;;;;;8.40;6.60;;;;;;;6.53;78.98;100656.80;112293;247;153906;-72
2023/12/19 07:39:11;;;;;;;9.00;6.60;;;;;;;6.55;79.15;100661.45;112424;247;38831;-72
2023/12/19 07:41:45;;;;;;;9.80;7.20;;;;;;;6.54;78.78;100661.46;112193;245;189067;-73
2023/12/19 07:44:20;;;;;;;10.30;7.00;;;;;;;6.50;78.55;100655.98;112394;247;38908;-74
2023/12/19 07:46:54;;;;;;;10.00;6.40;;;;;;;6.49;78.81;100662.58;112444;247;38223;-71
2023/12/19 07:49:28;;;;;;;11.40;6.80;;;;;;;6.52;79.00;100661.51;112389;248;38285;-71
2023/12/19 07:52:03;;;;;;;9.10;6.80;;;;;;;6.55;78.99;100653.13;112439;248;38827;-72
2023/12/19 07:54:38;;;;;;;9.60;6.80;;;;;;;6.58;79.13;100651.35;112284;245;153734;-72
2023/12/19 07:57:12;;;;;;;10.10;7.20;;;;;;;6.62;79.13;100651.44;112425;247;38287;-71
2023/12/19 07:59:48;;;;;;;10.20;7.30;;;;;;;6.63;78.80;100644.83;112160;245;189789;-71
2023/12/19 08:02:23;;;;;;;10.20;6.80;;;;;;;6.63;79.07;100642.75;112488;247;39261;-73
2023/12/19 08:04:57;;;;;;;9.50;6.70;;;;;;;6.63;78.90;100646.56;112344;247;155495;-73
2023/12/19 08:07:31;;;;;;;9.40;6.10;;;;;;;6.65;78.98;100644.63;112450;247;39459;-72
2023/12/19 08:10:07;;;;;;;10.30;6.50;;;;;;;6.67;78.94;100633.51;112450;247;38823;-72
2023/12/19 08:12:41;;;;;;;8.30;6.70;;;;;;;6.68;78.88;100625.67;112296;245;154613;-72
2023/12/19 08:15:15;;;;;;;9.30;7.20;;;;;;;6.68;78.79;100625.65;112448;247;39216;-72
2023/12/19 08:17:50;;;;;;;12.60;6.70;;;;;;;6.71;78.94;100628.77;112333;245;153664;-74
2023/12/19 08:20:24;;;;;;;9.50;7.10;;;;;;;6.72;78.70;100626.64;112450;247;38347;-75
2023/12/19 08:22:58;;;;;;;8.70;7.10;;;;;;;6.73;78.52;100630.27;112446;247;39662;-73
2023/12/19 08:25:33;;;;;;;8.30;6.60;;;;;;;6.76;78.62;100632.67;112443;247;38749;-73
2023/12/19 08:28:08;;;;;;;9.00;6.70;;;;;;;6.80;78.69;100636.04;112428;247;39517;-72
2023/12/19 08:30:43;;;;;;;8.70;6.90;;;;;;;6.82;78.58;100633.92;112288;247;153381;-72
2023/12/19 08:33:17;;;;;;;8.20;6.40;;;;;;;6.83;78.16;100627.13;112455;247;38334;-71
2023/12/19 08:35:51;;;;;;;8.90;6.90;;;;;;;6.84;78.32;100617.92;112303;245;153167;-73
2023/12/19 08:38:25;;;;;;;11.40;7.00;;;;;;;6.87;78.30;100617.34;112388;248;39807;-73
2023/12/19 08:41:00;;;;;;;8.10;6.50;;;;;;;6.91;78.19;100613.30;112484;247;38227;-72
2023/12/19 08:43:34;;;;;;;8.50;6.50;;;;;;;6.95;78.22;100610.60;112404;247;38745;-72
2023/12/19 08:46:09;;;;;;;8.30;6.60;;;;;;;6.99;78.20;100604.98;112347;247;174901;-73
2023/12/19 08:48:44;;;;;;;9.20;6.80;;;;;;;7.02;78.00;100602.84;112278;246;153965;-73
2023/12/19 08:51:21;;;;;;;11.20;7.70;;;;;;;7.05;78.23;100603.66;112459;248;38771;-74
2023/12/19 08:53:56;;;;;;;11.10;7.10;;;;;;;7.07;78.54;100605.16;112298;245;154921;-73
2023/12/19 08:56:30;;;;;;;13.20;7.70;;;;;;;7.13;78.09;100605.91;112422;247;38047;-73
2023/12/19 08:59:04;;;;;;;8.80;6.60;;;;;;;7.14;77.56;100604.16;112451;247;38110;-73
2023/12/19 09:01:40;;;;;;;9.30;7.00;;;;;;;7.17;77.77;100594.39;112423;247;38530;-72
2023/12/19 09:04:14;;;;;;;11.40;7.00;;;;;;;7.20;77.69;100595.02;112440;247;39172;-72
2023/12/19 09:06:48;;;;;;;8.60;6.50;;;;;;;7.21;77.51;100591.52;112305;245;154545;-74
2023/12/19 09:09:22;;;;;;;8.70;6.60;;;;;;;7.22;77.47;100587.15;112430;247;39719;-74
2023/12/19 09:11:56;;;;;;;8.80;5.90;;;;;;;7.25;77.46;100586.94;112304;245;154075;-73
2023/12/19 09:14:29;;;;;;;8.20;6.50;;;;;;;7.29;77.12;100589.80;112247;247;186514;-74
2023/12/19 09:17:04;;;;;;;9.50;6.30;;;;;;;7.31;77.47;100592.02;112472;247;38768;-72
2023/12/19 09:19:38;;;;;;;9.40;6.00;;;;;;;7.36;77.45;100580.81;112398;247;38776;-72
2023/12/19 09:22:12;;;;;;;8.90;6.70;;;;;;;7.37;77.32;100567.42;112468;247;40000;-72
2023/12/19 09:24:46;;;;;;;7.80;6.30;;;;;;;7.39;77.23;100564.42;112286;245;153561;-72
2023/12/19 09:27:20;;;;;;;10.10;6.40;;;;;;;7.41;77.24;100565.42;112469;247;38427;-73
2023/12/19 09:29:54;;;;;;;8.50;6.20;;;;;;;7.40;76.76;100566.30;112196;245;175017;-74
2023/12/19 09:32:29;;;;;;;7.20;6.30;;;;;;;7.41;76.79;100560.23;112436;247;38529;-73
2023/12/19 09:35:03;;;;;;;9.50;6.10;;;;;;;7.42;76.78;100563.14;112466;247;38320;-74
2023/12/19 09:37:38;;;;;;;8.30;6.60;;;;;;;7.45;76.83;100568.11;112400;247;38240;-73
2023/12/19 09:40:17;;;;;;;9.40;6.70;;;;;;;7.47;76.87;100565.79;112433;247;39902;-73
2023/12/19 09:42:51;;;;;;;6.90;6.00;;;;;;;7.47;76.80;100567.36;112303;245;153581;-73
2023/12/19 09:45:25;;;;;;;8.30;6.40;;;;;;;7.48;76.69;100566.31;111774;247;904903;-73
2023/12/19 09:48:03;;;;;;;9.30;6.30;;;;;;;7.48;76.58;100564.90;112309;245;155441;-74
2023/12/19 09:50:38;;;;;;;9.00;6.60;;;;;;;7.51;76.41;100554.44;112414;247;39136;-73
2023/12/19 09:53:13;;;;;;;8.70;6.80;;;;;;;7.53;76.53;100545.88;112290;245;154260;-74
2023/12/19 09:55:48;;;;;;;8.20;6.80;;;;;;;7.57;76.45;100551.88;112381;247;38799;-73
2023/12/19 09:58:23;;;;;;;7.80;6.60;;;;;;;7.60;76.56;100551.63;112475;247;38276;-75
2023/12/19 10:00:59;;;;;;;9.10;6.50;;;;;;;7.62;76.42;100542.54;112308;245;154671;-72
2023/12/19 10:03:36;;;;;;;8.40;6.70;;;;;;;7.65;76.56;100547.87;112474;247;38907;-72
2023/12/19 10:06:10;;;;;;;7.60;6.40;;;;;;;7.67;76.58;100548.66;112293;247;154140;-74
2023/12/19 10:08:44;;;;;;;9.20;6.40;;;;;;;7.70;76.72;100539.22;112415;247;38337;-75
2023/12/19 10:11:22;;;;;;;8.60;6.90;;;;;;;7.77;76.68;100534.02;112351;245;154842;-74
2023/12/19 10:13:57;;;;;;;8.40;6.60;;;;;;;7.83;76.67;100528.52;112422;247;39795;-74
2023/12/19 10:16:32;;;;;;;8.70;6.90;;;;;;;7.88;76.72;100533.61;112462;247;39509;-73
2023/12/19 10:19:07;;;;;;;8.60;7.20;;;;;;;7.92;76.86;100543.58;112304;245;154469;-73
2023/12/19 10:21:41;;;;;;;9.30;7.20;;;;;;;7.94;76.76;100557.27;112464;247;39457;-73
2023/12/19 10:24:15;;;;;;;10.00;7.50;;;;;;;7.94;76.52;100553.08;112294;247;153672;-73
2023/12/19 10:26:50;;;;;;;10.40;7.00;;;;;;;7.96;76.74;100550.95;112424;247;38259;-72
2023/12/19 10:29:34;;;;;;;10.10;6.90;;;;;;;7.98;76.79;100540.48;112302;245;154636;-72
2023/12/19 10:32:19;;;;;;;9.90;7.40;;;;;;;8.00;76.69;100545.63;112398;247;38366;-74
2023/12/19 10:34:59;;;;;;;10.40;7.20;;;;;;;8.00;76.47;100538.16;112377;247;40222;-74
2023/12/19 10:37:35;;;;;;;9.60;7.30;;;;;;;8.03;76.55;100527.69;112293;245;154648;-73
2023/12/19 10:40:19;;;;;;;9.20;7.10;;;;;;;8.03;76.86;100530.64;112440;247;38316;-73
2023/12/19 10:43:00;;;;;;;9.80;7.10;;;;;;;8.05;76.74;100519.10;112287;248;154137;-74
2023/12/19 10:45:36;;;;;;;9.00;7.20;;;;;;;8.07;76.76;100503.41;112457;247;38696;-74
2023/12/19 10:48:11;;;;;;;8.80;7.10;;;;;;;8.09;76.69;100490.70;112285;245;154585;-73
2023/12/19 10:50:45;;;;;;;9.20;7.30;;;;;;;8.10;76.61;100482.14;112454;247;38543;-73
2023/12/19 10:53:19;;;;;;;12.30;7.70;;;;;;;8.11;76.70;100468.56;112304;245;153732;-73
2023/12/19 10:55:53;;;;;;;10.40;7.60;;;;;;;8.12;76.86;100455.67;112438;247;39326;-72
2023/12/19 10:58:27;;;;;;;9.70;7.40;;;;;;;8.13;76.83;100433.59;112451;247;38823;-72
2023/12/19 11:01:01;;;;;;;9.20;6.90;;;;;;;8.14;76.82;100419.83;112346;245;154194;-73
2023/12/19 11:03:42;;;;;;;9.30;7.50;;;;;;;8.18;77.12;100426.84;112458;247;38258;-73
2023/12/19 11:06:17;;;;;;;8.50;7.20;;;;;;;8.23;77.17;100432.11;112327;245;153473;-74
2023/12/19 11:08:52;;;;;;;8.80;7.20;;;;;;;8.24;77.22;100430.85;112436;247;38302;-74
2023/12/19 11:11:30;;;;;;;13.00;8.30;;;;;;;8.26;77.19;100429.23;112353;245;153999;-74
2023/12/19 11:14:04;;;;;;;10.90;7.10;;;;;;;8.28;77.39;100437.19;112377;247;38474;-74
2023/12/19 11:16:46;;;;;;;10.80;8.10;;;;;;;8.32;77.29;100448.73;112419;247;39518;-73
2023/12/19 11:19:22;;;;;;;9.50;7.40;;;;;;;8.35;77.14;100445.35;112261;245;153881;-73
2023/12/19 11:22:01;;;;;;;10.20;7.40;;;;;;;8.36;77.19;100445.30;112420;247;38821;-73
2023/12/19 11:24:37;;;;;;;8.50;6.90;;;;;;;8.38;77.14;100440.58;112298;245;154093;-74
2023/12/19 11:27:16;;;;;;;9.50;7.30;;;;;;;8.39;76.97;100438.48;112455;247;38267;-73
2023/12/19 11:29:53;;;;;;;9.60;6.70;;;;;;;8.38;76.81;100427.36;112319;245;154642;-73
2023/12/19 11:32:41;;;;;;;8.10;6.20;;;;;;;8.40;76.87;100423.15;112414;247;38604;-72
2023/12/19 11:35:17;;;;;;;8.10;7.20;;;;;;;8.41;76.80;100421.38;112331;245;154545;-72
2023/12/19 11:37:52;;;;;;;8.40;7.40;;;;;;;8.41;76.80;100414.09;112295;247;174869;-73
2023/12/19 11:40:52;;;;;;;10.70;7.70;;;;;;;8.39;76.54;100407.00;112447;247;38279;-73
2023/12/19 11:43:56;;;;;;;12.60;7.60;;;;;;;8.38;76.59;100405.98;112296;245;154027;-72
2023/12/19 11:46:30;;;;;;;9.20;7.40;;;;;;;8.35;76.59;100406.58;112468;247;38822;-74
2023/12/19 11:49:04;;;;;;;8.50;7.00;;;;;;;8.35;76.82;100416.30;112290;245;154290;-74
2023/12/19 11:51:54;;;;;;;8.10;7.10;;;;;;;8.37;77.09;100413.48;112432;247;38564;-74
2023/12/19 11:54:28;;;;;;;9.80;7.20;;;;;;;8.40;77.05;100403.86;112203;247;172311;-74
2023/12/19 11:57:03;;;;;;;8.60;7.60;;;;;;;8.38;76.86;100397.30;112422;247;38375;-74
2023/12/19 11:59:54;;;;;;;10.90;7.60;;;;;;;8.38;76.91;100399.91;112275;245;153707;-74